Time;durP1;ratioP1;P1;durP2;ratioP2;P2;SDS_P1;SDS_P2;PMS_P1;PMS_P2;Temp;Humidity;BMP_temperature;BMP_pressure;BME280_temperature;BME280_humidity;BME280_pressure;Samples;Min_cycle;Max_cycle;Signal;HPM_P1;HPM_P2
2024/01/22 00:02:10;;;;;;;37.60;5.82;;;;;;;;;;4992473;28;20040;-61
2024/01/22 00:04:37;;;;;;;24.58;4.78;;;;;;;;;;4992335;28;20126;-55
2024/01/22 00:07:04;;;;;;;27.77;5.85;;;;;;;;;;4990988;28;20585;-55
2024/01/22 00:09:31;;;;;;;30.52;5.43;;;;;;;;;;4989250;28;20022;-54
2024/01/22 00:11:59;;;;;;;28.13;5.38;;;;;;;;;;4992949;28;20026;-52
2024/01/22 00:14:26;;;;;;;27.77;4.97;;;;;;;;;;4991099;28;20065;-53
2024/01/22 00:16:53;;;;;;;27.10;4.20;;;;;;;;;;4992433;28;20030;-51
2024/01/22 00:19:20;;;;;;;16.10;4.15;;;;;;;;;;4971935;28;20030;-46
2024/01/22 00:21:47;;;;;;;34.15;4.13;;;;;;;;;;4989961;28;20109;-45
2024/01/22 00:24:14;;;;;;;22.83;3.80;;;;;;;;;;4974839;28;20469;-45
2024/01/22 00:26:41;;;;;;;21.13;4.15;;;;;;;;;;4991592;28;20074;-55
2024/01/22 00:29:08;;;;;;;20.33;3.35;;;;;;;;;;4992133;28;20109;-53
2024/01/22 00:31:35;;;;;;;20.67;3.35;;;;;;;;;;4987985;28;20030;-58
2024/01/22 00:34:02;;;;;;;15.32;3.42;;;;;;;;;;4990312;28;20030;-57
2024/01/22 00:36:29;;;;;;;17.70;4.15;;;;;;;;;;4991379;28;20121;-54
2024/01/22 00:38:56;;;;;;;17.20;3.75;;;;;;;;;;4991921;28;20275;-50
2024/01/22 00:41:23;;;;;;;20.77;3.58;;;;;;;;;;4991734;28;20113;-49
2024/01/22 00:43:50;;;;;;;16.13;3.35;;;;;;;;;;4987713;28;20358;-48
2024/01/22 00:46:17;;;;;;;18.45;3.05;;;;;;;;;;4991244;28;20041;-53
2024/01/22 00:48:44;;;;;;;17.00;2.80;;;;;;;;;;4990711;28;20031;-50
2024/01/22 00:51:11;;;;;;;11.85;3.83;;;;;;;;;;4991197;28;20030;-47
2024/01/22 00:53:38;;;;;;;16.63;4.20;;;;;;;;;;4991455;28;20026;-46
2024/01/22 00:56:05;;;;;;;16.90;4.60;;;;;;;;;;4986378;28;20117;-46
2024/01/22 00:58:32;;;;;;;23.38;6.90;;;;;;;;;;4992011;28;20088;-44
2024/01/22 01:00:59;;;;;;;25.23;6.53;;;;;;;;;;4990100;28;20089;-44
2024/01/22 01:03:26;;;;;;;29.92;6.85;;;;;;;;;;4991299;28;20121;-45
2024/01/22 01:05:53;;;;;;;28.25;6.40;;;;;;;;;;4991545;28;20436;-45
2024/01/22 01:08:20;;;;;;;31.63;7.22;;;;;;;;;;4986809;28;20494;-47
2024/01/22 01:10:47;;;;;;;25.52;6.22;;;;;;;;;;4991473;28;20744;-45
2024/01/22 01:13:14;;;;;;;23.85;6.60;;;;;;;;;;4991352;28;20026;-45
2024/01/22 01:15:41;;;;;;;24.83;6.22;;;;;;;;;;4982846;28;20512;-46
2024/01/22 01:18:08;;;;;;;20.55;4.90;;;;;;;;;;4985850;28;20030;-46
2024/01/22 01:20:37;;;;;;;21.73;4.72;;;;;;;;;;4987146;28;20029;-45
2024/01/22 01:23:04;;;;;;;17.27;4.13;;;;;;;;;;4988683;28;20046;-49
2024/01/22 01:25:32;;;;;;;13.20;3.78;;;;;;;;;;4990840;28;20026;-45
2024/01/22 01:27:59;;;;;;;18.98;3.65;;;;;;;;;;4990174;28;20031;-46
2024/01/22 01:30:26;;;;;;;14.00;2.88;;;;;;;;;;4989525;28;20057;-45
2024/01/22 01:32:53;;;;;;;15.23;3.40;;;;;;;;;;4983677;28;20080;-45
2024/01/22 01:35:20;;;;;;;12.27;3.22;;;;;;;;;;4990330;28;20552;-45
2024/01/22 01:37:47;;;;;;;12.15;3.22;;;;;;;;;;4991403;28;20122;-46
2024/01/22 01:40:14;;;;;;;18.88;3.25;;;;;;;;;;4990804;28;20030;-47
2024/01/22 01:42:44;;;;;;;13.75;2.97;;;;;;;;;;4989583;28;20060;-47
2024/01/22 01:45:14;;;;;;;9.80;2.75;;;;;;;;;;4988659;28;20031;-46
2024/01/22 01:47:42;;;;;;;16.02;2.80;;;;;;;;;;4986043;28;20053;-46
2024/01/22 01:50:10;;;;;;;22.15;3.78;;;;;;;;;;4989516;28;20085;-52
2024/01/22 01:52:37;;;;;;;18.92;3.05;;;;;;;;;;4991121;28;20041;-58
2024/01/22 01:55:04;;;;;;;15.50;3.15;;;;;;;;;;4987515;28;20081;-54
2024/01/22 01:57:31;;;;;;;14.90;2.80;;;;;;;;;;4989298;28;20037;-57
2024/01/22 01:59:58;;;;;;;11.25;2.80;;;;;;;;;;4990857;28;20038;-58
2024/01/22 02:02:26;;;;;;;10.30;2.40;;;;;;;;;;4991094;28;20037;-49
2024/01/22 02:04:57;;;;;;;12.93;2.03;;;;;;;;;;4977880;28;20047;-50
2024/01/22 02:07:24;;;;;;;11.68;2.60;;;;;;;;;;4986779;28;20022;-49
2024/01/22 02:09:53;;;;;;;13.52;2.28;;;;;;;;;;4989574;28;20410;-53
2024/01/22 02:12:21;;;;;;;7.60;2.05;;;;;;;;;;4984835;28;20105;-57
2024/01/22 02:14:48;;;;;;;10.45;2.05;;;;;;;;;;4981210;28;20147;-52
2024/01/22 02:17:15;;;;;;;12.52;2.05;;;;;;;;;;4974503;28;20035;-46
2024/01/22 02:19:42;;;;;;;10.95;2.30;;;;;;;;;;4968071;28;20038;-43
2024/01/22 02:22:09;;;;;;;16.45;2.03;;;;;;;;;;4990518;28;20053;-42
2024/01/22 02:24:36;;;;;;;13.88;2.50;;;;;;;;;;4988504;28;20031;-41
2024/01/22 02:27:03;;;;;;;9.85;1.92;;;;;;;;;;4987262;28;20030;-43
2024/01/22 02:29:31;;;;;;;17.77;2.17;;;;;;;;;;4994500;28;20060;-41
2024/01/22 02:31:58;;;;;;;12.73;2.00;;;;;;;;;;4988560;28;20085;-45
2024/01/22 02:34:25;;;;;;;24.10;2.13;;;;;;;;;;4994399;28;20452;-45
2024/01/22 02:36:52;;;;;;;11.05;1.88;;;;;;;;;;4993688;28;20097;-44
2024/01/22 02:39:19;;;;;;;7.95;1.88;;;;;;;;;;4993306;28;20030;-46
2024/01/22 02:41:46;;;;;;;13.05;1.73;;;;;;;;;;4997923;28;20034;-44
2024/01/22 02:44:13;;;;;;;14.38;1.73;;;;;;;;;;4998995;28;20507;-45
2024/01/22 02:46:40;;;;;;;11.43;1.98;;;;;;;;;;4994065;28;20437;-45
2024/01/22 02:49:09;;;;;;;14.60;1.98;;;;;;;;;;4994194;28;20437;-48
2024/01/22 02:51:36;;;;;;;15.80;1.83;;;;;;;;;;4993684;28;20034;-49
2024/01/22 02:54:06;;;;;;;15.55;2.58;;;;;;;;;;4994036;28;20436;-47
2024/01/22 02:56:33;;;;;;;11.18;2.00;;;;;;;;;;4989651;28;20073;-50
2024/01/22 02:59:00;;;;;;;8.07;1.67;;;;;;;;;;4993962;28;20034;-50
2024/01/22 03:01:28;;;;;;;5.30;1.52;;;;;;;;;;4994030;28;20078;-51
2024/01/22 03:03:55;;;;;;;13.10;1.88;;;;;;;;;;4980848;28;20045;-51
2024/01/22 03:06:22;;;;;;;10.75;1.55;;;;;;;;;;4992932;28;20038;-55
2024/01/22 03:08:49;;;;;;;10.05;1.38;;;;;;;;;;4984011;28;20080;-46
2024/01/22 03:11:16;;;;;;;11.43;1.60;;;;;;;;;;4992449;28;20385;-50
2024/01/22 03:13:43;;;;;;;8.75;1.17;;;;;;;;;;4993563;28;20035;-51
2024/01/22 03:16:10;;;;;;;9.38;1.45;;;;;;;;;;4993352;28;20534;-46
2024/01/22 03:18:39;;;;;;;11.38;1.85;;;;;;;;;;5004749;23;20033;31
2024/01/22 03:50:10;;;;;;;8.23;1.35;;;;;;;;;;4970969;28;20042;-46
2024/01/22 04:08:35;;;;;;;12.27;1.77;;;;;;;;;;4922459;29;20070;-47
2024/01/22 04:14:31;;;;;;;7.80;1.40;;;;;;;;;;4972484;28;20042;-47
2024/01/22 04:27:01;;;;;;;14.63;1.92;;;;;;;;;;4929700;29;20106;-48
2024/01/22 05:44:27;;;;;;;9.27;1.60;;;;;;;;;;4949419;29;20050;-48
2024/01/22 05:47:19;;;;;;;7.68;1.38;;;;;;;;;;4953169;29;20027;-47
2024/01/22 06:35:16;;;;;;;4.95;1.10;;;;;;;;;;4956273;29;20066;-48
2024/01/22 06:47:33;;;;;;;3.90;1.23;;;;;;;;;;4936206;29;20111;-48
2024/01/22 07:25:48;;;;;;;11.25;1.58;;;;;;;;;;4959762;28;20101;-48
2024/01/22 07:28:39;;;;;;;7.63;1.42;;;;;;;;;;4974577;28;20038;-47
2024/01/22 08:56:24;;;;;;;8.00;1.63;;;;;;;;;;4985087;28;20510;-52
2024/01/22 10:26:45;;;;;;;16.27;2.70;;;;;;;;;;4992114;28;20435;-48
2024/01/22 10:29:21;;;;;;;13.45;2.25;;;;;;;;;;4993402;28;20124;-47
2024/01/22 10:44:44;;;;;;;8.90;1.92;;;;;;;;;;4988072;28;20081;-49
2024/01/22 13:01:12;;;;;;;29.77;3.00;;;;;;;;;;4978458;28;20435;-42
2024/01/22 14:02:23;;;;;;;14.07;2.78;;;;;;;;;;4986890;28;20053;-52
2024/01/22 15:09:53;;;;;;;22.25;2.20;;;;;;;;;;4982518;28;20154;-47
2024/01/22 15:18:53;;;;;;;24.35;2.97;;;;;;;;;;4972541;28;20072;-53
2024/01/22 15:21:20;;;;;;;19.85;2.53;;;;;;;;;;5018097;28;20052;-49
2024/01/22 15:23:48;;;;;;;15.35;2.80;;;;;;;;;;5033446;28;20034;-49
2024/01/22 15:26:15;;;;;;;22.90;2.90;;;;;;;;;;5032660;28;20124;-52
2024/01/22 15:28:42;;;;;;;19.40;3.05;;;;;;;;;;5032646;28;20037;-53
2024/01/22 15:31:11;;;;;;;16.92;3.22;;;;;;;;;;5030317;28;20502;-54
2024/01/22 15:33:39;;;;;;;21.38;3.00;;;;;;;;;;5031561;28;20468;-49
2024/01/22 15:36:09;;;;;;;19.73;2.65;;;;;;;;;;5033047;28;20103;-51
2024/01/22 15:38:36;;;;;;;25.88;3.28;;;;;;;;;;5032999;28;20037;-53
2024/01/22 15:41:03;;;;;;;24.95;2.90;;;;;;;;;;5033031;28;20030;-53
2024/01/22 15:43:30;;;;;;;24.05;3.22;;;;;;;;;;5029152;28;20047;-51
2024/01/22 15:45:57;;;;;;;28.75;3.50;;;;;;;;;;5032542;28;20026;-50
2024/01/22 15:48:24;;;;;;;22.38;3.22;;;;;;;;;;5032541;28;20029;-51
2024/01/22 15:50:51;;;;;;;21.75;2.90;;;;;;;;;;5032719;28;20071;-53
2024/01/22 15:53:18;;;;;;;26.48;3.25;;;;;;;;;;5031387;28;20021;-53
2024/01/22 15:55:46;;;;;;;33.88;3.72;;;;;;;;;;5029134;28;20045;-53
2024/01/22 15:58:12;;;;;;;42.05;3.40;;;;;;;;;;5014294;28;20551;-53
2024/01/22 16:00:40;;;;;;;32.30;3.92;;;;;;;;;;5032332;28;20545;-52
2024/01/22 16:03:07;;;;;;;33.92;3.42;;;;;;;;;;5032311;28;20432;-53
2024/01/22 16:05:34;;;;;;;27.67;3.50;;;;;;;;;;5032193;28;20102;-52
2024/01/22 16:08:00;;;;;;;24.67;3.97;;;;;;;;;;5029008;28;20041;-53
2024/01/22 16:10:28;;;;;;;27.27;3.42;;;;;;;;;;5043653;28;20124;-53
2024/01/22 16:12:55;;;;;;;34.17;4.43;;;;;;;;;;5031663;28;20044;-54
2024/01/22 16:15:22;;;;;;;35.45;4.47;;;;;;;;;;5032172;28;20090;-52
2024/01/22 16:17:49;;;;;;;36.47;4.40;;;;;;;;;;5031733;28;20766;-53
2024/01/22 16:20:16;;;;;;;31.90;5.03;;;;;;;;;;5027714;28;20045;-55
2024/01/22 16:22:43;;;;;;;30.83;4.20;;;;;;;;;;5028882;28;20100;-54
2024/01/22 16:25:10;;;;;;;36.75;4.47;;;;;;;;;;5026635;28;20029;-53
2024/01/22 16:27:38;;;;;;;40.55;4.30;;;;;;;;;;5028674;28;20041;-51
2024/01/22 16:30:05;;;;;;;30.33;3.88;;;;;;;;;;5021030;28;20045;-51
2024/01/22 16:32:32;;;;;;;26.90;4.20;;;;;;;;;;5022989;28;20025;-51
2024/01/22 16:34:59;;;;;;;34.55;4.28;;;;;;;;;;5021456;28;20052;-53
2024/01/22 16:37:26;;;;;;;48.35;4.93;;;;;;;;;;5024076;28;20029;-45
2024/01/22 16:39:53;;;;;;;34.97;4.50;;;;;;;;;;4999384;28;20066;-47
2024/01/22 16:42:20;;;;;;;45.10;4.85;;;;;;;;;;5017489;28;20017;-47
2024/01/22 16:44:47;;;;;;;31.83;4.40;;;;;;;;;;5021553;28;20025;-45
2024/01/22 16:47:14;;;;;;;33.60;4.50;;;;;;;;;;5031433;28;20032;-46
2024/01/22 16:49:43;;;;;;;28.98;3.80;;;;;;;;;;5030660;28;20041;-47
2024/01/22 16:52:10;;;;;;;42.75;4.65;;;;;;;;;;5023606;28;20026;-46
2024/01/22 16:54:37;;;;;;;33.55;4.97;;;;;;;;;;5023636;28;20034;-47
2024/01/22 16:57:05;;;;;;;43.78;5.07;;;;;;;;;;5007058;28;20060;-46
2024/01/22 16:59:32;;;;;;;36.40;4.63;;;;;;;;;;5026973;28;20025;-45
2024/01/22 17:01:59;;;;;;;34.72;5.47;;;;;;;;;;5020581;28;20121;-45
2024/01/22 17:04:26;;;;;;;49.78;6.30;;;;;;;;;;5026644;28;20022;-46
2024/01/22 17:07:14;;;;;;;34.17;4.70;;;;;;;;;;5028044;28;20072;-45
2024/01/22 17:09:41;;;;;;;36.67;5.20;;;;;;;;;;5028726;28;20117;-46
2024/01/22 17:12:08;;;;;;;42.65;5.72;;;;;;;;;;5028835;28;20517;-46
2024/01/22 17:14:35;;;;;;;42.70;6.20;;;;;;;;;;5024555;28;20033;-45
2024/01/22 17:17:02;;;;;;;47.70;7.22;;;;;;;;;;5029299;28;20025;-46
2024/01/22 17:19:29;;;;;;;39.45;6.78;;;;;;;;;;5025268;28;20514;-46
2024/01/22 17:21:56;;;;;;;35.28;5.88;;;;;;;;;;5030666;28;20064;-45
2024/01/22 17:24:23;;;;;;;47.33;6.40;;;;;;;;;;5024157;28;20044;-47
2024/01/22 17:26:50;;;;;;;43.75;6.22;;;;;;;;;;5026721;28;20064;-45
2024/01/22 17:29:17;;;;;;;46.35;6.97;;;;;;;;;;5030903;28;20499;-47
2024/01/22 17:31:44;;;;;;;58.45;7.88;;;;;;;;;;5024649;28;20051;-49
2024/01/22 17:34:11;;;;;;;53.03;8.20;;;;;;;;;;5018847;28;20636;-46
2024/01/22 17:36:38;;;;;;;52.03;7.57;;;;;;;;;;5026883;28;20730;-45
2024/01/22 17:39:05;;;;;;;41.75;6.43;;;;;;;;;;5031145;28;20025;-45
2024/01/22 17:41:32;;;;;;;56.55;7.75;;;;;;;;;;5029478;28;20478;-47
2024/01/22 17:43:59;;;;;;;35.22;6.32;;;;;;;;;;5019048;28;20454;-47
2024/01/22 17:46:28;;;;;;;34.03;6.20;;;;;;;;;;5024830;28;20029;-47
2024/01/22 17:48:55;;;;;;;39.42;6.32;;;;;;;;;;5030631;28;20033;-47
2024/01/22 17:51:23;;;;;;;45.47;7.03;;;;;;;;;;5023189;28;20495;-45
2024/01/22 17:53:50;;;;;;;46.72;6.45;;;;;;;;;;5033897;28;20045;-46
2024/01/22 17:56:17;;;;;;;34.65;5.63;;;;;;;;;;5029435;28;20038;-45
2024/01/22 17:58:44;;;;;;;36.22;6.05;;;;;;;;;;5015942;28;20041;-54
2024/01/22 18:01:11;;;;;;;38.38;5.30;;;;;;;;;;5016616;28;20034;-51
2024/01/22 18:03:38;;;;;;;48.15;6.18;;;;;;;;;;5032143;28;20120;-53
2024/01/22 18:06:05;;;;;;;41.63;6.30;;;;;;;;;;5021518;28;20105;-55
2024/01/22 18:08:43;;;;;;;;;;;;;;;;;;;;;
2024/01/22 18:11:16;;;;;;;47.10;5.93;;;;;;;;;;5033969;28;20390;-55
2024/01/22 18:13:44;;;;;;;54.83;6.22;;;;;;;;;;5024395;28;20037;-51
2024/01/22 18:16:11;;;;;;;35.08;5.38;;;;;;;;;;5027393;28;20030;-49
2024/01/22 18:18:38;;;;;;;35.13;5.55;;;;;;;;;;5029510;28;20033;-47
2024/01/22 18:21:05;;;;;;;46.08;5.95;;;;;;;;;;5031546;28;20108;-50
2024/01/22 18:23:35;;;;;;;39.58;5.20;;;;;;;;;;5033687;28;20040;-47
2024/01/22 18:26:02;;;;;;;48.42;6.00;;;;;;;;;;5032507;28;20112;-46
2024/01/22 18:28:29;;;;;;;37.60;4.88;;;;;;;;;;5032522;28;20022;-48
2024/01/22 18:30:56;;;;;;;37.80;4.63;;;;;;;;;;5030997;28;20112;-52
2024/01/22 18:33:25;;;;;;;33.55;5.20;;;;;;;;;;5032076;28;20087;-48
2024/01/22 18:35:53;;;;;;;46.58;5.05;;;;;;;;;;5033592;28;20073;-47
2024/01/22 18:38:20;;;;;;;37.05;4.72;;;;;;;;;;5032764;28;20025;-45
2024/01/22 18:40:47;;;;;;;32.70;4.75;;;;;;;;;;5033340;28;20026;-60
2024/01/22 18:43:15;;;;;;;34.83;4.15;;;;;;;;;;5024216;28;20050;-56
2024/01/22 18:45:42;;;;;;;45.33;5.68;;;;;;;;;;5030972;28;20029;-49
2024/01/22 18:48:10;;;;;;;44.58;4.35;;;;;;;;;;5033433;28;20033;-46
2024/01/22 18:50:37;;;;;;;30.33;4.07;;;;;;;;;;5033598;28;20072;-45
2024/01/22 18:53:04;;;;;;;34.95;4.82;;;;;;;;;;5033473;28;20029;-45
2024/01/22 18:55:32;;;;;;;31.17;4.30;;;;;;;;;;5025352;28;20391;-50
2024/01/22 18:57:59;;;;;;;29.40;4.03;;;;;;;;;;5033356;28;20410;-42
2024/01/22 19:00:26;;;;;;;24.08;3.88;;;;;;;;;;5032560;28;20107;-48
2024/01/22 19:02:54;;;;;;;30.95;4.15;;;;;;;;;;5032298;28;20026;-46
2024/01/22 19:05:22;;;;;;;33.65;4.32;;;;;;;;;;5029842;28;20472;-43
2024/01/22 19:07:50;;;;;;;32.80;3.97;;;;;;;;;;5023407;28;20040;-45
2024/01/22 19:10:18;;;;;;;35.47;3.92;;;;;;;;;;5033325;28;20112;-49
2024/01/22 19:12:46;;;;;;;25.38;3.78;;;;;;;;;;5032565;28;20124;-44
2024/01/22 19:15:13;;;;;;;27.35;3.05;;;;;;;;;;5033133;28;20068;-55
2024/01/22 19:17:41;;;;;;;30.67;3.90;;;;;;;;;;5025019;28;20033;-48
2024/01/22 19:20:08;;;;;;;42.47;4.00;;;;;;;;;;5006048;28;20047;-45
2024/01/22 19:22:36;;;;;;;31.08;3.95;;;;;;;;;;5021867;28;20044;-47
2024/01/22 19:25:03;;;;;;;28.58;3.00;;;;;;;;;;5027644;28;20121;-45
2024/01/22 19:27:30;;;;;;;33.20;3.55;;;;;;;;;;5026707;28;20029;-42
2024/01/22 19:29:57;;;;;;;32.00;3.60;;;;;;;;;;5027110;28;20033;-49
2024/01/22 19:32:24;;;;;;;33.75;4.00;;;;;;;;;;5027609;28;20021;-45
2024/01/22 19:34:52;;;;;;;40.75;4.28;;;;;;;;;;5032448;28;20033;-50
2024/01/22 19:37:19;;;;;;;44.13;4.93;;;;;;;;;;5014335;28;20079;-50
2024/01/22 19:39:47;;;;;;;55.88;4.30;;;;;;;;;;5022888;28;20084;-47
2024/01/22 19:42:14;;;;;;;47.15;5.95;;;;;;;;;;5027503;28;20382;-43
2024/01/22 19:44:41;;;;;;;51.97;5.32;;;;;;;;;;5028527;28;20505;-44
2024/01/22 19:47:09;;;;;;;57.40;5.53;;;;;;;;;;5026664;28;20808;-44
2024/01/22 19:49:36;;;;;;;51.53;4.80;;;;;;;;;;5026442;28;20034;-44
2024/01/22 19:52:03;;;;;;;57.25;4.80;;;;;;;;;;5026407;28;20044;-45
2024/01/22 19:54:30;;;;;;;39.38;5.22;;;;;;;;;;5021734;28;20034;-45
2024/01/22 19:56:57;;;;;;;58.72;5.50;;;;;;;;;;5015340;28;20091;-46
2024/01/22 19:59:25;;;;;;;54.85;5.30;;;;;;;;;;5026410;28;20533;-47
2024/01/22 20:01:52;;;;;;;68.00;6.45;;;;;;;;;;5013460;28;20029;-47
2024/01/22 20:04:19;;;;;;;56.40;5.22;;;;;;;;;;5030858;28;20030;-48
2024/01/22 20:06:46;;;;;;;58.97;5.32;;;;;;;;;;5028965;28;21627;-51
2024/01/22 20:09:15;;;;;;;42.53;5.55;;;;;;;;;;5026140;28;20048;-50
2024/01/22 20:11:42;;;;;;;71.75;6.78;;;;;;;;;;5030275;28;20030;-52
2024/01/22 20:14:09;;;;;;;48.17;4.90;;;;;;;;;;5031981;28;20132;-49
2024/01/22 20:16:39;;;;;;;64.45;5.72;;;;;;;;;;5031515;28;20518;-50
2024/01/22 20:19:07;;;;;;;54.75;5.20;;;;;;;;;;5023221;28;20049;-45
2024/01/22 20:21:34;;;;;;;57.28;5.10;;;;;;;;;;5011746;28;20087;-53
2024/01/22 20:24:01;;;;;;;53.67;5.45;;;;;;;;;;5012334;28;20036;-44
2024/01/22 20:26:28;;;;;;;47.55;4.35;;;;;;;;;;5011979;28;20032;-49
2024/01/22 20:28:55;;;;;;;41.47;4.45;;;;;;;;;;5010731;28;20037;-47
2024/01/22 20:31:22;;;;;;;53.90;5.30;;;;;;;;;;5007785;28;20029;-53
2024/01/22 20:33:49;;;;;;;45.50;4.88;;;;;;;;;;5008846;28;20029;-47
2024/01/22 20:36:17;;;;;;;47.45;5.40;;;;;;;;;;5009938;28;20132;-48
2024/01/22 20:38:46;;;;;;;46.13;4.95;;;;;;;;;;5010081;28;20113;-47
2024/01/22 20:41:13;;;;;;;64.88;5.53;;;;;;;;;;5009977;28;20034;-49
2024/01/22 20:43:40;;;;;;;62.53;5.78;;;;;;;;;;5006249;28;20034;-52
2024/01/22 20:46:07;;;;;;;53.03;5.50;;;;;;;;;;5016236;28;20487;-47
2024/01/22 20:48:34;;;;;;;43.45;5.13;;;;;;;;;;5017580;28;20037;-49
2024/01/22 20:51:01;;;;;;;54.85;5.30;;;;;;;;;;5015478;28;20049;-48
2024/01/22 20:53:28;;;;;;;52.55;5.50;;;;;;;;;;5009773;28;20492;-43
2024/01/22 20:55:55;;;;;;;48.75;5.35;;;;;;;;;;5003972;28;20046;-42
2024/01/22 20:58:23;;;;;;;49.00;5.65;;;;;;;;;;5011305;28;20026;-43
2024/01/22 21:00:50;;;;;;;50.50;6.10;;;;;;;;;;5008385;28;20053;-43
2024/01/22 21:03:17;;;;;;;47.55;4.53;;;;;;;;;;5011464;28;20026;-43
2024/01/22 21:05:44;;;;;;;48.53;5.68;;;;;;;;;;5010946;28;20029;-42
2024/01/22 21:08:11;;;;;;;49.42;4.80;;;;;;;;;;5007183;28;20117;-43
2024/01/22 21:10:38;;;;;;;49.10;5.80;;;;;;;;;;5011248;28;20029;-42
2024/01/22 21:13:05;;;;;;;46.85;5.38;;;;;;;;;;5008409;28;20026;-43
2024/01/22 21:15:32;;;;;;;54.72;6.07;;;;;;;;;;5011388;28;20037;-42
2024/01/22 21:17:59;;;;;;;82.28;6.38;;;;;;;;;;5010406;28;20030;-43
2024/01/22 21:20:26;;;;;;;61.97;6.18;;;;;;;;;;5023997;28;20049;-42
2024/01/22 21:22:53;;;;;;;57.08;6.03;;;;;;;;;;5031192;28;20044;-42
2024/01/22 21:25:20;;;;;;;54.60;6.57;;;;;;;;;;5031435;28;20025;-42
2024/01/22 21:27:47;;;;;;;56.63;6.53;;;;;;;;;;5031017;28;20055;-42
2024/01/22 21:30:14;;;;;;;51.70;5.35;;;;;;;;;;5030219;28;20078;-42
2024/01/22 21:32:41;;;;;;;51.28;4.68;;;;;;;;;;5028321;28;20029;-42
2024/01/22 21:35:08;;;;;;;45.90;5.28;;;;;;;;;;5031454;28;20522;-42
2024/01/22 21:37:35;;;;;;;44.55;4.82;;;;;;;;;;5031171;28;20049;-42
2024/01/22 21:40:03;;;;;;;50.45;5.65;;;;;;;;;;5031439;28;20021;-42
2024/01/22 21:42:30;;;;;;;58.10;6.78;;;;;;;;;;5029618;28;20124;-42
2024/01/22 21:44:57;;;;;;;46.53;4.93;;;;;;;;;;5028723;28;20025;-42
2024/01/22 21:47:24;;;;;;;32.15;4.25;;;;;;;;;;5031292;28;20029;-42
2024/01/22 21:49:51;;;;;;;31.63;4.10;;;;;;;;;;5031314;28;20091;-42
2024/01/22 21:52:18;;;;;;;33.33;4.18;;;;;;;;;;5030609;28;20036;-42
2024/01/22 21:54:45;;;;;;;32.88;4.75;;;;;;;;;;5028693;28;20139;-45
2024/01/22 21:57:12;;;;;;;34.63;4.30;;;;;;;;;;5029248;28;20033;-42
2024/01/22 21:59:42;;;;;;;25.15;3.08;;;;;;;;;;5031176;28;20037;-43
2024/01/22 22:02:09;;;;;;;29.05;3.88;;;;;;;;;;5031114;28;20056;-42
2024/01/22 22:04:36;;;;;;;40.35;3.28;;;;;;;;;;5031129;28;20033;-43
2024/01/22 22:07:03;;;;;;;25.00;4.10;;;;;;;;;;5028235;28;20022;-43
2024/01/22 22:09:30;;;;;;;18.25;3.15;;;;;;;;;;5011936;28;20037;-43
2024/01/22 22:11:57;;;;;;;26.45;3.55;;;;;;;;;;5031136;28;20368;-42
2024/01/22 22:14:24;;;;;;;25.73;3.20;;;;;;;;;;5031080;28;20021;-43
2024/01/22 22:16:52;;;;;;;24.70;3.50;;;;;;;;;;5013150;28;20394;-43
2024/01/22 22:19:19;;;;;;;22.60;3.70;;;;;;;;;;5027169;28;20057;-43
2024/01/22 22:21:49;;;;;;;26.73;3.45;;;;;;;;;;5030263;28;20034;-43
2024/01/22 22:24:17;;;;;;;23.48;2.58;;;;;;;;;;5031055;28;20060;-43
2024/01/22 22:26:44;;;;;;;25.60;3.13;;;;;;;;;;5030880;28;20029;-43
2024/01/22 22:29:11;;;;;;;17.65;2.88;;;;;;;;;;5030828;28;20041;-43
2024/01/22 22:31:41;;;;;;;24.98;2.95;;;;;;;;;;5026525;28;20030;-42
2024/01/22 22:34:08;;;;;;;18.75;3.17;;;;;;;;;;5030803;28;20104;-43
2024/01/22 22:36:36;;;;;;;12.57;2.33;;;;;;;;;;5018910;28;20499;-42
2024/01/22 22:39:03;;;;;;;20.77;2.92;;;;;;;;;;5031389;28;20476;-42
2024/01/22 22:41:30;;;;;;;14.93;2.60;;;;;;;;;;5034429;28;20033;-42
2024/01/22 22:43:58;;;;;;;15.15;2.58;;;;;;;;;;5028662;28;20395;-42
2024/01/22 22:46:25;;;;;;;21.92;2.40;;;;;;;;;;5034288;28;20030;-42
2024/01/22 22:48:52;;;;;;;19.33;2.78;;;;;;;;;;5034227;28;20030;-42
2024/01/22 22:51:19;;;;;;;16.95;2.35;;;;;;;;;;5034285;28;20028;-42
2024/01/22 22:53:46;;;;;;;18.08;2.67;;;;;;;;;;5033635;28;20029;-42
2024/01/22 22:56:13;;;;;;;15.68;2.63;;;;;;;;;;5030673;28;20537;-42
2024/01/22 22:58:40;;;;;;;14.75;2.50;;;;;;;;;;5034033;28;20067;-42
2024/01/22 23:01:09;;;;;;;16.00;2.42;;;;;;;;;;5034117;28;20032;-42
2024/01/22 23:03:36;;;;;;;18.23;2.90;;;;;;;;;;5033947;28;20043;-42
2024/01/22 23:06:03;;;;;;;22.55;2.65;;;;;;;;;;5032972;28;20029;-42
2024/01/22 23:08:31;;;;;;;9.18;1.98;;;;;;;;;;5030567;28;20080;-42
2024/01/22 23:10:58;;;;;;;14.35;2.30;;;;;;;;;;5034022;28;20055;-42
2024/01/22 23:13:25;;;;;;;12.50;2.17;;;;;;;;;;5033853;28;20021;-42
2024/01/22 23:15:52;;;;;;;13.68;2.38;;;;;;;;;;5033844;28;20033;-42
2024/01/22 23:18:19;;;;;;;10.77;2.28;;;;;;;;;;5031857;28;20737;-42
2024/01/22 23:20:46;;;;;;;17.23;2.05;;;;;;;;;;5010290;28;20507;-42
2024/01/22 23:23:13;;;;;;;13.77;2.00;;;;;;;;;;5013948;28;20084;-42
2024/01/22 23:25:40;;;;;;;14.23;1.98;;;;;;;;;;5013823;28;20026;-42
2024/01/22 23:28:07;;;;;;;17.35;2.15;;;;;;;;;;5013673;28;20022;-43
2024/01/22 23:30:34;;;;;;;14.30;2.22;;;;;;;;;;5011247;28;20029;-42
2024/01/22 23:33:01;;;;;;;9.70;2.10;;;;;;;;;;5011584;28;20018;-42
2024/01/22 23:35:28;;;;;;;11.55;1.88;;;;;;;;;;5013203;28;20508;-42
2024/01/22 23:37:58;;;;;;;10.18;1.95;;;;;;;;;;5013503;28;20140;-42
2024/01/22 23:40:25;;;;;;;10.38;1.73;;;;;;;;;;5013437;28;20404;-42
2024/01/22 23:42:52;;;;;;;9.65;1.83;;;;;;;;;;5010367;28;20029;-42
2024/01/22 23:45:20;;;;;;;9.85;2.30;;;;;;;;;;5011794;28;20034;-42
2024/01/22 23:47:47;;;;;;;14.25;1.90;;;;;;;;;;5013397;28;20025;-42
2024/01/22 23:50:14;;;;;;;8.10;1.92;;;;;;;;;;5012935;28;20062;-42
2024/01/22 23:52:41;;;;;;;13.32;2.05;;;;;;;;;;5013371;28;20030;-42
2024/01/22 23:55:10;;;;;;;8.73;1.70;;;;;;;;;;5008217;28;20399;-42
2024/01/22 23:57:37;;;;;;;14.40;1.90;;;;;;;;;;5012525;28;20092;-42
